createdAt,value
2019-04-25T00:01:24.742Z,19.10
2019-04-25T00:03:55.402Z,19.10
2019-04-25T00:06:26.545Z,19.10
2019-04-25T00:08:56.364Z,19.10
2019-04-25T00:11:26.254Z,19.00
2019-04-25T00:13:56.077Z,19.00
2019-04-25T00:16:27.680Z,19.00
2019-04-25T00:18:57.558Z,18.90
2019-04-25T00:21:33.812Z,18.90
2019-04-25T00:24:05.057Z,18.80
2019-04-25T00:26:36.585Z,18.80
2019-04-25T00:29:06.542Z,18.80
2019-04-25T00:31:36.521Z,18.80
2019-04-25T00:34:07.181Z,18.80
2019-04-25T00:36:38.975Z,18.80
2019-04-25T00:39:08.666Z,18.80
2019-04-25T00:41:38.665Z,18.70
2019-04-25T00:44:08.990Z,18.70
2019-04-25T00:46:38.819Z,18.70
2019-04-25T00:49:08.774Z,18.60
2019-04-25T00:51:38.604Z,18.60
2019-04-25T00:54:08.562Z,18.60
2019-04-25T00:56:39.486Z,18.50
2019-04-25T00:59:11.835Z,18.30
2019-04-25T01:01:56.210Z,18.20
2019-04-25T01:04:27.661Z,18.20
2019-04-25T01:06:57.622Z,18.30
2019-04-25T01:09:28.690Z,18.40
2019-04-25T01:11:58.942Z,18.50
2019-04-25T01:14:28.825Z,18.50
2019-04-25T01:16:58.754Z,18.50
2019-04-25T01:19:28.574Z,18.50
2019-04-25T01:21:58.479Z,18.50
2019-04-25T01:24:28.616Z,18.50
2019-04-25T01:26:58.434Z,18.40
2019-04-25T01:29:28.551Z,18.30
2019-04-25T01:31:58.442Z,18.30
2019-04-25T01:34:29.975Z,18.40
2019-04-25T01:39:58.002Z,18.20
2019-04-25T01:42:33.672Z,18.30
2019-04-25T01:45:05.609Z,18.30
2019-04-25T01:47:35.455Z,18.20
2019-04-25T01:50:07.478Z,18.20
2019-04-25T01:52:38.285Z,18.20
2019-04-25T01:55:08.456Z,18.10
2019-04-25T01:57:38.274Z,18.00
2019-04-25T02:00:09.734Z,18.10
2019-04-25T02:02:39.939Z,18.10
2019-04-25T02:05:10.513Z,18.10
2019-04-25T02:07:40.702Z,18.00
2019-04-25T02:10:11.218Z,18.00
2019-04-25T02:12:45.717Z,17.90
2019-04-25T02:15:18.142Z,17.90
2019-04-25T02:17:47.963Z,17.90
2019-04-25T02:20:17.862Z,18.00
2019-04-25T02:22:47.699Z,17.90
2019-04-25T02:25:19.146Z,17.90
2019-04-25T02:27:48.954Z,17.90
2019-04-25T02:30:19.753Z,17.90
2019-04-25T02:32:49.639Z,17.90
2019-04-25T02:35:19.892Z,17.90
2019-04-25T02:37:49.708Z,17.90
2019-04-25T02:40:20.292Z,17.90
2019-04-25T02:42:50.107Z,17.90
2019-04-25T02:48:17.018Z,17.80
2019-04-25T02:50:48.543Z,17.80
2019-04-25T02:53:29.948Z,17.80
2019-04-25T02:55:59.856Z,17.80
2019-04-25T02:58:29.656Z,17.80
2019-04-25T03:01:08.077Z,17.80
2019-04-25T03:03:32.002Z,17.70
2019-04-25T03:06:03.002Z,17.70
2019-04-25T03:08:35.398Z,17.70
2019-04-25T03:11:07.437Z,17.70
2019-04-25T03:13:36.505Z,17.70
2019-04-25T03:16:09.044Z,17.70
2019-04-25T03:18:39.825Z,17.70
2019-04-25T03:21:17.215Z,17.60
2019-04-25T03:23:47.555Z,17.50
2019-04-25T03:26:17.435Z,17.50
2019-04-25T03:28:47.324Z,17.50
2019-04-25T03:31:22.531Z,17.60
2019-04-25T03:33:50.713Z,17.60
2019-04-25T03:36:20.940Z,17.40
2019-04-25T03:38:50.755Z,17.50
2019-04-25T03:41:20.653Z,17.60
2019-04-25T03:43:50.549Z,17.60
2019-04-25T03:46:20.439Z,17.50
2019-04-25T03:48:50.257Z,17.50
2019-04-25T03:51:20.083Z,17.50
2019-04-25T03:53:50.974Z,17.50
2019-04-25T03:56:20.798Z,17.40
2019-04-25T03:58:50.686Z,17.40
2019-04-25T04:01:20.494Z,17.40
2019-04-25T04:03:50.388Z,17.40
2019-04-25T04:06:20.270Z,17.30
2019-04-25T04:08:50.096Z,17.30
2019-04-25T04:11:20.257Z,17.40
2019-04-25T04:13:50.062Z,17.30
2019-04-25T04:16:23.170Z,17.30
2019-04-25T04:18:54.499Z,17.40
2019-04-25T04:21:41.274Z,17.30
2019-04-25T04:24:14.161Z,17.30
2019-04-25T04:26:46.419Z,17.30
2019-04-25T04:29:16.469Z,17.30
2019-04-25T04:31:46.302Z,17.20
2019-04-25T04:34:17.024Z,17.20
2019-04-25T04:36:46.985Z,17.20
2019-04-25T04:39:18.777Z,17.20
2019-04-25T04:41:48.708Z,17.20
2019-04-25T04:44:38.169Z,17.20
2019-04-25T04:47:08.559Z,17.20
2019-04-25T04:49:43.978Z,17.20
2019-04-25T04:52:14.666Z,17.20
2019-04-25T04:54:45.543Z,17.20
2019-04-25T04:57:26.556Z,17.20
2019-04-25T04:59:47.299Z,17.20
2019-04-25T05:02:27.894Z,17.10
2019-04-25T05:05:05.770Z,17.20
2019-04-25T05:07:40.470Z,17.10
2019-04-25T05:10:11.280Z,17.10
2019-04-25T05:12:41.142Z,17.10
2019-04-25T05:15:11.040Z,17.10
2019-04-25T05:17:41.026Z,17.20
2019-04-25T05:20:11.984Z,17.20
2019-04-25T05:22:44.514Z,17.20
2019-04-25T05:25:16.199Z,17.20
2019-04-25T05:28:00.124Z,17.30
2019-04-25T05:30:23.655Z,17.50
2019-04-25T05:33:00.505Z,17.70
2019-04-25T05:35:30.386Z,17.90
2019-04-25T05:38:00.269Z,18.20
2019-04-25T05:40:30.097Z,18.40
2019-04-25T05:43:03.212Z,18.60
2019-04-25T05:45:34.171Z,18.90
2019-04-25T05:48:05.970Z,19.10
2019-04-25T05:50:35.653Z,19.30
2019-04-25T05:53:05.564Z,19.60
2019-04-25T05:55:35.378Z,19.70
2019-04-25T05:58:05.286Z,20.00
2019-04-25T06:00:35.173Z,20.30
2019-04-25T06:03:05.005Z,20.50
2019-04-25T06:05:34.828Z,20.60
2019-04-25T06:08:04.740Z,20.80
2019-04-25T06:10:39.080Z,21.00
2019-04-25T06:13:13.754Z,21.30
2019-04-25T06:15:46.834Z,21.60
2019-04-25T06:18:19.717Z,21.80
2019-04-25T06:20:49.855Z,22.10
2019-04-25T06:23:24.576Z,22.10
2019-04-25T06:25:56.977Z,22.00
2019-04-25T06:28:28.533Z,22.00
2019-04-25T06:30:58.521Z,22.20
2019-04-25T06:33:29.089Z,22.10
2019-04-25T06:36:00.013Z,22.30
2019-04-25T06:38:49.290Z,22.40
2019-04-25T06:41:19.147Z,22.40
2019-04-25T06:43:50.682Z,22.80
2019-04-25T06:46:40.153Z,23.00
2019-04-25T06:49:29.801Z,23.20
2019-04-25T06:51:59.763Z,23.40
2019-04-25T06:54:29.666Z,23.30
2019-04-25T06:56:59.553Z,23.20
2019-04-25T06:59:30.130Z,23.60
2019-04-25T07:02:00.081Z,23.60
2019-04-25T07:04:30.008Z,23.70
2019-04-25T07:07:09.610Z,23.60
2019-04-25T07:09:34.578Z,23.40
2019-04-25T07:12:04.259Z,23.80
2019-04-25T07:14:36.814Z,24.10
2019-04-25T07:17:06.090Z,24.10
2019-04-25T07:19:35.989Z,24.30
2019-04-25T07:22:05.803Z,24.20
2019-04-25T07:24:35.625Z,24.00
2019-04-25T07:27:24.613Z,24.10
2019-04-25T07:30:00.000Z,23.80
2019-04-25T07:32:32.506Z,23.80
2019-04-25T07:35:03.710Z,24.00
2019-04-25T07:37:37.186Z,24.40
2019-04-25T07:40:07.981Z,24.20
2019-04-25T07:42:37.900Z,24.30
2019-04-25T07:45:08.605Z,24.40
2019-04-25T07:47:38.956Z,24.30
2019-04-25T07:50:08.838Z,24.30
2019-04-25T07:52:38.865Z,24.20
2019-04-25T07:55:08.777Z,24.50
2019-04-25T07:57:38.696Z,24.40
2019-04-25T08:00:13.145Z,24.30
2019-04-25T08:02:44.758Z,24.20
2019-04-25T08:05:17.811Z,24.00
2019-04-25T08:07:47.637Z,24.40
2019-04-25T08:10:17.691Z,24.60
2019-04-25T08:12:47.666Z,24.90
2019-04-25T08:15:21.662Z,24.80
2019-04-25T08:17:55.848Z,24.60
2019-04-25T08:20:25.118Z,24.40
2019-04-25T08:22:58.851Z,24.30
2019-04-25T08:25:26.625Z,24.30
2019-04-25T08:27:56.581Z,24.50
2019-04-25T08:30:26.401Z,24.50
2019-04-25T08:32:56.753Z,24.10
2019-04-25T08:35:26.561Z,24.00
2019-04-25T08:37:56.379Z,24.20
2019-04-25T08:40:26.294Z,24.30
2019-04-25T08:42:56.176Z,24.20
2019-04-25T08:45:26.062Z,24.10
2019-04-25T08:47:55.875Z,24.10
2019-04-25T08:50:31.292Z,24.10
2019-04-25T08:52:58.836Z,24.00
2019-04-25T08:55:44.028Z,24.10
2019-04-25T08:58:21.644Z,24.40
2019-04-25T09:01:09.278Z,24.70
2019-04-25T09:04:15.477Z,24.70
2019-04-25T09:06:48.381Z,25.00
2019-04-25T09:09:18.218Z,24.90
2019-04-25T09:11:48.110Z,24.90
2019-04-25T09:14:17.993Z,24.80
2019-04-25T09:16:48.144Z,24.70
2019-04-25T09:19:18.477Z,24.70
2019-04-25T09:21:49.601Z,24.60
2019-04-25T09:24:19.598Z,24.70
2019-04-25T09:26:49.426Z,24.90
2019-04-25T09:29:20.029Z,24.70
2019-04-25T09:31:50.122Z,25.00
2019-04-25T09:34:19.943Z,24.50
2019-04-25T09:37:03.173Z,24.60
2019-04-25T09:39:51.171Z,24.60
2019-04-25T09:42:21.072Z,24.80
2019-04-25T09:44:53.732Z,25.10
2019-04-25T09:47:23.786Z,25.10
2019-04-25T09:49:55.849Z,25.20
2019-04-25T09:52:25.746Z,25.10
2019-04-25T09:57:56.283Z,24.60
2019-04-25T10:00:47.659Z,24.50
2019-04-25T10:03:17.577Z,24.60
2019-04-25T10:05:47.465Z,24.50
2019-04-25T10:08:17.375Z,24.50
2019-04-25T10:10:47.333Z,24.50
2019-04-25T10:13:17.508Z,24.40
2019-04-25T10:15:50.590Z,24.50
2019-04-25T10:18:20.410Z,24.40
2019-04-25T10:20:50.249Z,24.40
2019-04-25T10:23:20.147Z,24.30
2019-04-25T10:25:50.166Z,24.20
2019-04-25T10:28:23.343Z,24.10
2019-04-25T10:30:55.562Z,24.00
2019-04-25T10:33:25.230Z,24.00
2019-04-25T10:35:59.377Z,24.00
2019-04-25T10:38:27.087Z,24.10
2019-04-25T10:40:56.911Z,24.20
2019-04-25T10:43:27.086Z,24.30
2019-04-25T10:45:56.970Z,24.30
2019-04-25T10:48:26.873Z,24.00
2019-04-25T10:50:56.762Z,24.00
2019-04-25T10:53:26.655Z,24.00
2019-04-25T10:55:59.086Z,23.90
2019-04-25T10:58:28.902Z,23.90
2019-04-25T11:00:58.742Z,23.90
2019-04-25T11:03:33.764Z,23.70
2019-04-25T11:06:04.098Z,23.80
2019-04-25T11:08:34.331Z,23.80
2019-04-25T11:11:04.349Z,23.80
2019-04-25T11:13:35.462Z,23.70
2019-04-25T11:16:07.745Z,23.80
2019-04-25T11:18:37.697Z,24.00
2019-04-25T11:21:07.513Z,24.10
2019-04-25T11:23:37.721Z,24.00
2019-04-25T11:26:07.878Z,24.00
2019-04-25T11:28:39.213Z,24.00
2019-04-25T11:31:10.665Z,24.00
2019-04-25T11:33:40.505Z,23.90
2019-04-25T11:36:10.475Z,24.00
2019-04-25T11:38:45.325Z,23.90
2019-04-25T11:41:16.784Z,23.80
2019-04-25T11:43:46.607Z,23.80
2019-04-25T11:46:16.793Z,23.70
2019-04-25T11:48:46.613Z,23.70
2019-04-25T11:51:17.876Z,23.50
2019-04-25T11:53:48.430Z,23.40
2019-04-25T11:56:18.441Z,23.30
2019-04-25T11:58:48.967Z,23.40
2019-04-25T12:01:19.768Z,23.50
2019-04-25T12:03:50.666Z,23.60
2019-04-25T12:06:20.502Z,23.60
2019-04-25T12:08:51.435Z,23.60
2019-04-25T12:11:23.423Z,23.80
2019-04-25T12:13:54.195Z,23.70
2019-04-25T12:16:25.107Z,23.60
2019-04-25T12:18:56.334Z,23.50
2019-04-25T12:21:27.425Z,23.60
2019-04-25T12:23:58.023Z,23.80
2019-04-25T12:26:27.870Z,24.00
2019-04-25T12:28:57.686Z,24.20
2019-04-25T12:31:27.506Z,24.20
2019-04-25T12:33:57.636Z,24.30
2019-04-25T12:36:27.562Z,24.40
2019-04-25T12:38:57.449Z,24.40
2019-04-25T12:41:27.275Z,24.50
2019-04-25T12:44:01.717Z,24.40
2019-04-25T12:46:36.191Z,24.40
2019-04-25T12:49:06.078Z,24.40
2019-04-25T12:51:35.925Z,24.30
2019-04-25T12:54:06.613Z,24.30
2019-04-25T12:56:36.486Z,24.20
2019-04-25T12:59:06.318Z,24.10
2019-04-25T13:01:36.130Z,24.10
2019-04-25T13:04:06.515Z,24.10
2019-04-25T13:06:37.473Z,24.10
2019-04-25T13:09:07.294Z,24.20
2019-04-25T13:11:37.357Z,24.20
2019-04-25T13:14:07.169Z,24.10
2019-04-25T13:16:37.057Z,24.00
2019-04-25T13:19:16.918Z,24.10
2019-04-25T13:21:38.777Z,24.10
2019-04-25T13:24:08.590Z,24.20
2019-04-25T13:26:40.123Z,24.20
2019-04-25T13:29:27.978Z,24.00
2019-04-25T13:32:04.946Z,24.10
2019-04-25T13:34:36.812Z,24.10
2019-04-25T13:37:07.273Z,24.00
2019-04-25T13:39:37.230Z,24.00
2019-04-25T13:42:08.530Z,23.90
2019-04-25T13:44:38.561Z,23.90
2019-04-25T13:47:08.386Z,23.80
2019-04-25T13:49:38.686Z,23.70
2019-04-25T13:52:09.473Z,23.70
2019-04-25T13:54:39.318Z,23.70
2019-04-25T13:57:09.142Z,23.70
2019-04-25T13:59:41.658Z,23.70
2019-04-25T14:02:11.912Z,23.70
2019-04-25T14:04:41.878Z,23.60
2019-04-25T14:07:13.106Z,23.60
2019-04-25T14:09:44.598Z,23.50
2019-04-25T14:12:14.593Z,23.50
2019-04-25T14:14:44.438Z,23.40
2019-04-25T14:17:33.487Z,23.40
2019-04-25T14:20:16.355Z,23.30
2019-04-25T14:22:46.169Z,23.30
2019-04-25T14:25:16.302Z,23.20
2019-04-25T14:27:46.189Z,23.20
2019-04-25T14:30:17.662Z,23.20
2019-04-25T14:32:47.482Z,23.20
2019-04-25T14:35:17.338Z,23.10
2019-04-25T14:37:47.297Z,23.00
2019-04-25T14:40:17.490Z,22.90
2019-04-25T14:42:47.377Z,22.90
2019-04-25T14:45:17.639Z,22.80
2019-04-25T14:47:47.525Z,22.80
2019-04-25T14:50:17.676Z,22.70
2019-04-25T14:52:47.490Z,22.70
2019-04-25T14:55:19.088Z,22.70
2019-04-25T14:57:50.146Z,22.80
2019-04-25T15:00:30.638Z,22.70
2019-04-25T15:03:00.601Z,22.70
2019-04-25T15:05:31.008Z,22.60
2019-04-25T15:08:01.006Z,22.60
2019-04-25T15:10:31.047Z,22.50
2019-04-25T15:13:01.247Z,22.60
2019-04-25T15:15:31.641Z,22.50
2019-04-25T15:18:01.453Z,22.50
2019-04-25T15:20:32.481Z,22.40
2019-04-25T15:23:02.407Z,22.40
2019-04-25T15:25:35.166Z,22.40
2019-04-25T15:28:04.999Z,22.30
2019-04-25T15:30:38.241Z,22.30
2019-04-25T15:33:08.146Z,22.20
2019-04-25T15:35:42.689Z,22.20
2019-04-25T15:38:14.144Z,22.20
2019-04-25T15:40:48.449Z,22.20
2019-04-25T15:43:22.622Z,22.10
2019-04-25T15:46:00.136Z,22.10
2019-04-25T15:48:29.959Z,22.10
2019-04-25T15:50:59.927Z,22.00
2019-04-25T15:53:30.675Z,22.00
2019-04-25T15:56:00.706Z,22.00
2019-04-25T15:58:30.597Z,21.90
2019-04-25T16:01:00.453Z,22.00
2019-04-25T16:03:30.835Z,21.90
2019-04-25T16:06:00.838Z,21.80
2019-04-25T16:08:30.959Z,21.80
2019-04-25T16:11:00.975Z,21.70
2019-04-25T16:13:30.860Z,21.60
2019-04-25T16:16:00.674Z,21.60
2019-04-25T16:18:30.561Z,21.60
2019-04-25T16:21:00.391Z,21.60
2019-04-25T16:23:30.502Z,21.50
2019-04-25T16:26:00.456Z,21.50
2019-04-25T16:28:31.705Z,21.40
2019-04-25T16:31:04.271Z,21.30
2019-04-25T16:33:33.482Z,21.40
2019-04-25T16:36:03.370Z,21.30
2019-04-25T16:38:33.421Z,21.20
2019-04-25T16:41:04.917Z,21.20
2019-04-25T16:43:38.932Z,21.20
2019-04-25T16:46:09.026Z,21.10
2019-04-25T16:48:39.199Z,21.20
2019-04-25T16:51:09.532Z,21.10
2019-04-25T16:53:40.056Z,21.10
2019-04-25T16:56:11.081Z,21.00
2019-04-25T16:58:40.893Z,21.00
2019-04-25T17:01:12.399Z,20.90
2019-04-25T17:03:42.354Z,20.90
2019-04-25T17:06:12.314Z,20.80
2019-04-25T17:08:42.114Z,20.90
2019-04-25T17:11:12.579Z,20.80
2019-04-25T17:13:44.107Z,20.80
2019-04-25T17:16:15.646Z,20.80
2019-04-25T17:18:50.189Z,20.80
2019-04-25T17:21:20.206Z,20.70
2019-04-25T17:23:50.090Z,20.70
2019-04-25T17:26:19.979Z,20.60
2019-04-25T17:28:51.501Z,20.60
2019-04-25T17:31:28.839Z,20.50
2019-04-25T17:34:00.377Z,20.50
2019-04-25T17:36:36.060Z,20.50
2019-04-25T17:39:41.949Z,20.50
2019-04-25T17:42:12.710Z,20.40
2019-04-25T17:44:42.830Z,20.30
2019-04-25T17:47:12.723Z,20.30
2019-04-25T17:49:42.531Z,20.30
2019-04-25T17:52:12.418Z,20.30
2019-04-25T17:54:43.091Z,20.30
2019-04-25T17:57:12.913Z,20.30
2019-04-25T17:59:43.434Z,20.30
2019-04-25T18:02:13.474Z,20.30
2019-04-25T18:04:43.281Z,20.30
2019-04-25T18:07:13.092Z,20.20
2019-04-25T18:09:43.474Z,20.20
2019-04-25T18:12:13.467Z,20.10
2019-04-25T18:14:43.353Z,20.10
2019-04-25T18:17:13.236Z,20.10
2019-04-25T18:19:50.969Z,20.10
2019-04-25T18:22:22.412Z,20.10
2019-04-25T18:25:09.097Z,20.00
2019-04-25T18:27:44.399Z,20.00
2019-04-25T18:30:14.582Z,20.00
2019-04-25T18:32:52.057Z,20.20
2019-04-25T18:35:23.591Z,20.20
2019-04-25T18:37:58.163Z,20.10
2019-04-25T18:40:30.024Z,20.00
2019-04-25T18:46:03.161Z,19.90
2019-04-25T18:48:32.973Z,19.90
2019-04-25T18:51:03.003Z,19.90
2019-04-25T18:53:52.639Z,19.90
2019-04-25T18:56:24.085Z,19.90
2019-04-25T18:59:05.836Z,19.90
2019-04-25T19:01:43.764Z,19.90
2019-04-25T19:04:16.298Z,19.80
2019-04-25T19:06:55.282Z,19.80
2019-04-25T19:09:18.767Z,19.80
2019-04-25T19:11:48.580Z,19.70
2019-04-25T19:14:18.503Z,19.80
2019-04-25T19:16:48.529Z,19.70
2019-04-25T19:19:18.482Z,19.80
2019-04-25T19:21:49.034Z,19.70
2019-04-25T19:24:18.983Z,19.70
2019-04-25T19:26:48.816Z,19.70
2019-04-25T19:29:18.622Z,19.70
2019-04-25T19:31:48.526Z,19.70
2019-04-25T19:34:18.402Z,19.70
2019-04-25T19:36:49.086Z,19.60
2019-04-25T19:39:21.099Z,19.60
2019-04-25T19:42:08.961Z,19.60
2019-04-25T19:44:38.919Z,19.60
2019-04-25T19:47:11.701Z,19.60
2019-04-25T19:49:41.654Z,19.60
2019-04-25T19:52:11.597Z,19.50
2019-04-25T19:54:41.954Z,19.50
2019-04-25T19:57:11.842Z,19.50
2019-04-25T19:59:43.277Z,19.50
2019-04-25T20:02:15.365Z,19.50
2019-04-25T20:04:47.383Z,19.50
2019-04-25T20:07:21.861Z,19.40
2019-04-25T20:10:11.987Z,19.40
2019-04-25T20:13:01.366Z,19.40
2019-04-25T20:15:31.269Z,19.40
2019-04-25T20:18:01.236Z,19.40
2019-04-25T20:20:31.253Z,19.40
2019-04-25T20:23:01.222Z,19.40
2019-04-25T20:25:31.106Z,19.40
2019-04-25T20:28:00.982Z,19.30
2019-04-25T20:30:30.875Z,19.30
2019-04-25T20:33:00.684Z,19.30
2019-04-25T20:35:31.239Z,19.20
2019-04-25T20:38:01.653Z,19.30
2019-04-25T20:40:31.507Z,19.30
2019-04-25T20:43:02.392Z,19.30
2019-04-25T20:45:32.378Z,19.20
2019-04-25T20:48:03.285Z,19.20
2019-04-25T20:50:33.244Z,19.20
2019-04-25T20:53:03.076Z,19.20
2019-04-25T20:55:33.297Z,19.20
2019-04-25T20:58:03.193Z,19.10
2019-04-25T21:00:40.644Z,19.10
2019-04-25T21:03:10.829Z,19.00
2019-04-25T21:05:41.110Z,19.10
2019-04-25T21:08:11.001Z,19.00
2019-04-25T21:10:40.842Z,19.00
2019-04-25T21:13:12.367Z,19.00
2019-04-25T21:15:47.065Z,18.90
2019-04-25T21:18:24.558Z,18.90
2019-04-25T21:20:55.019Z,18.90
2019-04-25T21:23:24.877Z,18.90
2019-04-25T21:26:07.557Z,18.90
2019-04-25T21:28:37.384Z,18.90
2019-04-25T21:31:07.635Z,18.90
2019-04-25T21:33:37.856Z,18.90
2019-04-25T21:36:08.062Z,18.90
2019-04-25T21:38:38.157Z,18.80
2019-04-25T21:41:26.019Z,18.80
2019-04-25T21:43:58.021Z,18.80
2019-04-25T21:46:28.183Z,18.80
2019-04-25T21:48:58.932Z,18.80
2019-04-25T21:54:22.439Z,18.60
2019-04-25T21:56:53.297Z,18.60
2019-04-25T21:59:24.009Z,18.60
2019-04-25T22:01:55.389Z,18.60
2019-04-25T22:04:38.014Z,18.70
2019-04-25T22:06:57.788Z,18.60
2019-04-25T22:09:28.903Z,18.60
2019-04-25T22:11:59.334Z,18.60
2019-04-25T22:14:29.448Z,18.60
2019-04-25T22:16:59.959Z,18.60
2019-04-25T22:19:33.309Z,18.60
2019-04-25T22:22:03.482Z,18.60
2019-04-25T22:24:34.446Z,18.60
2019-04-25T22:27:05.976Z,18.70
2019-04-25T22:29:37.461Z,18.60
2019-04-25T22:35:09.203Z,18.70
2019-04-25T22:37:39.154Z,18.60
2019-04-25T22:40:09.383Z,18.70
2019-04-25T22:42:39.269Z,18.70
2019-04-25T22:45:09.085Z,18.60
2019-04-25T22:47:39.431Z,18.60
2019-04-25T22:50:09.328Z,18.60
2019-04-25T22:52:39.444Z,18.60
2019-04-25T22:55:09.413Z,18.60
2019-04-25T22:57:39.845Z,18.60
2019-04-25T23:00:11.505Z,18.60
2019-04-25T23:02:44.945Z,18.60
2019-04-25T23:05:28.774Z,18.60
2019-04-25T23:07:58.925Z,18.60
2019-04-25T23:10:29.633Z,18.60
2019-04-25T23:12:59.527Z,18.60
2019-04-25T23:15:29.426Z,18.60
2019-04-25T23:17:59.547Z,18.60
2019-04-25T23:20:29.783Z,18.60
2019-04-25T23:22:59.625Z,18.60
2019-04-25T23:25:31.082Z,18.60
2019-04-25T23:31:10.570Z,18.50
2019-04-25T23:33:40.407Z,18.60
2019-04-25T23:36:11.174Z,18.60
2019-04-25T23:38:41.228Z,18.60
2019-04-25T23:44:17.110Z,18.50
2019-04-25T23:46:47.298Z,18.60
2019-04-25T23:49:17.186Z,18.60
2019-04-25T23:51:47.310Z,18.60
2019-04-25T23:54:17.260Z,18.50
2019-04-25T23:56:47.158Z,18.50
2019-04-25T23:59:17.782Z,18.50
